17:36
Airports
History
Links
Donate
Help keep this website running!
PayPal
Bitcoin
This page is community maintained. The information is intended for PC simulator navigation or reference.
Always use approved charts for navigation.
SDZH
FAZENDA SANTA HELENA
FAZENDA SANTA HELENA (SDZH)
Pindamonhangaba, São Paulo, Brazil
(U)
Lat/Lng:22° 53' 25.58" S / 45° 29' 35.77" W
-22.890439 / -45.49327
Elevation:1804'ft / 550mMSL
ID / ICAO:SDZH
Runways:1
Longest:04-22
Asphalt 1,400m / 4,594ft
Nearby Weather17:00 GMT 2017-09-21
Nearby weather at SBGW, GUARATINGUETA located 19.6 nautical miles from SDZH
Altimeter: 30.12
Visibility: 6.2 statute miles
Wind: 4 knots (from VRB°)
Temp: 31°c / 88°f
Humidity: 20.8%

METAR: SBGW 211700Z VRB04KT 9999 FEW035 31/06 Q1020

(Powered by phpweather)
Runway 04 / 22
Dimensions:1400.1 x 18m 4594' x 59'ft
Surface:Asphalt
Edge Lights:Low intensity
Runway 04 [A]Runway 22 [B]
Heading:019°TH 199°TH
Lat:
Lng:
22° 53' 47.05"S
45° 29' 43.81"W
22° 53' 4.11"S
45° 29' 27.73"W
User Notes and Comments
22° 53' 25.58" S / 45° 29' 35.77" W
Distance To
Airport ID:
Nearby Airports
4 Pindamonhangaba 5.4 NM
SDPD SE 133°
4 Fazenda Maristela 8.2 NM
SDMA WSW 237°
(C) BASE DE AVIACAO DE TAUBATE 10.4 NM
SBTA S 187°
(C) GUARATINGUETA 19.6 NM
SBGW ( WX ) ENE 69°
4 Fazenda Centro de Voo a Vela Ipua 20.8 NM
SDIP WSW 239°
4 Helibras 31.8 NM
SIYS N
(C) Sao Jose Dos Campos 33.1 NM
SBSJ ( WX ) SW 225°
VFR Chart
Flight Planning at SkyVector.com